createdAt,value
2022-12-28T00:00:24.832Z,49.63
2022-12-28T00:03:14.840Z,49.56
2022-12-28T00:06:03.869Z,49.77
2022-12-28T00:08:54.750Z,49.74
2022-12-28T00:11:43.349Z,49.49
2022-12-28T00:14:31.928Z,49.77
2022-12-28T00:17:20.609Z,49.63
2022-12-28T00:20:12.193Z,50.16
2022-12-28T00:23:00.892Z,49.77
2022-12-28T00:25:49.491Z,49.75
2022-12-28T00:28:38.302Z,49.87
2022-12-28T00:31:26.894Z,49.42
2022-12-28T00:34:16.008Z,49.51
2022-12-28T00:37:08.254Z,49.73
2022-12-28T00:40:01.421Z,49.68
2022-12-28T00:42:50.056Z,49.89
2022-12-28T00:45:38.739Z,49.79
2022-12-28T00:48:27.403Z,50.25
2022-12-28T00:51:17.470Z,50.14
2022-12-28T00:54:07.568Z,50.38
2022-12-28T00:56:56.152Z,50.46
2022-12-28T00:59:44.759Z,50.22
2022-12-28T01:02:33.460Z,50.11
2022-12-28T01:05:22.267Z,50.04
2022-12-28T01:08:10.932Z,50.14
2022-12-28T01:11:00.943Z,49.91
2022-12-28T01:13:50.352Z,49.87
2022-12-28T01:16:39.039Z,49.84
2022-12-28T01:19:27.669Z,50.13
2022-12-28T01:22:16.231Z,50.28
2022-12-28T01:25:05.194Z,50.24
2022-12-28T01:27:55.288Z,50.33
2022-12-28T01:30:43.912Z,50.49
2022-12-28T01:33:32.626Z,50.12
2022-12-28T01:36:23.182Z,49.90
2022-12-28T01:39:11.958Z,50.00
2022-12-28T01:42:00.544Z,50.44
2022-12-28T01:44:51.259Z,50.46
2022-12-28T01:47:40.007Z,50.59
2022-12-28T01:50:29.912Z,50.36
2022-12-28T01:53:19.189Z,50.14
2022-12-28T01:56:08.178Z,50.29
2022-12-28T01:58:57.239Z,50.12
2022-12-28T02:01:47.538Z,49.89
2022-12-28T02:04:36.365Z,50.14
2022-12-28T02:07:33.814Z,50.41
2022-12-28T02:10:44.031Z,50.22
2022-12-28T02:13:32.471Z,49.99
2022-12-28T02:16:21.262Z,50.17
2022-12-28T02:19:13.576Z,49.99
2022-12-28T02:22:17.366Z,50.32
2022-12-28T02:25:38.198Z,50.04
2022-12-28T02:28:54.898Z,50.05
2022-12-28T02:31:46.015Z,49.95
2022-12-28T02:34:37.818Z,50.02
2022-12-28T02:37:29.117Z,50.18
2022-12-28T02:40:21.102Z,50.35
2022-12-28T02:43:09.803Z,50.25
2022-12-28T02:46:17.319Z,50.18
2022-12-28T02:49:36.008Z,50.43
2022-12-28T02:52:28.880Z,50.43
2022-12-28T02:55:44.409Z,50.23
2022-12-28T02:58:59.367Z,50.49
2022-12-28T03:02:01.867Z,50.49
2022-12-28T03:05:00.713Z,50.11
2022-12-28T03:08:11.724Z,50.51
2022-12-28T03:11:04.123Z,49.94
2022-12-28T03:13:57.545Z,50.09
2022-12-28T03:17:06.267Z,50.06
2022-12-28T03:20:17.001Z,50.46
2022-12-28T03:23:25.418Z,50.42
2022-12-28T03:26:32.302Z,50.38
2022-12-28T03:29:39.877Z,50.39
2022-12-28T03:32:28.593Z,50.47
2022-12-28T03:35:20.089Z,49.91
2022-12-28T03:38:09.890Z,50.06
2022-12-28T03:41:07.485Z,50.26
2022-12-28T03:43:58.146Z,50.55
2022-12-28T03:49:37.653Z,50.42
2022-12-28T03:52:27.917Z,50.50
2022-12-28T03:55:17.443Z,50.26
2022-12-28T03:58:06.217Z,50.45
2022-12-28T04:00:54.851Z,50.09
2022-12-28T04:03:43.491Z,50.11
2022-12-28T04:06:32.078Z,50.13
2022-12-28T04:09:22.443Z,50.44
2022-12-28T04:12:12.292Z,50.54
2022-12-28T04:15:00.922Z,50.29
2022-12-28T04:17:49.514Z,50.03
2022-12-28T04:20:38.161Z,50.20
2022-12-28T04:23:27.028Z,49.96
2022-12-28T04:26:17.712Z,50.59
2022-12-28T04:34:48.180Z,50.14
2022-12-28T04:37:38.367Z,50.13
2022-12-28T04:40:26.965Z,49.94
2022-12-28T04:43:18.087Z,49.88
2022-12-28T04:46:09.606Z,49.95
2022-12-28T04:48:58.355Z,50.43
2022-12-28T04:51:46.995Z,50.22
2022-12-28T04:54:35.687Z,50.04
2022-12-28T04:57:24.282Z,50.29
2022-12-28T05:00:15.834Z,50.22
2022-12-28T05:03:04.913Z,50.44
2022-12-28T05:05:53.568Z,50.29
2022-12-28T05:08:42.760Z,50.06
2022-12-28T05:11:31.927Z,50.07
2022-12-28T05:14:20.673Z,50.38
2022-12-28T05:17:10.702Z,49.85
2022-12-28T05:19:59.289Z,50.11
2022-12-28T05:22:47.972Z,49.79
2022-12-28T05:25:36.579Z,49.98
2022-12-28T05:28:25.753Z,49.74
2022-12-28T05:31:15.499Z,50.11
2022-12-28T05:34:05.475Z,49.99
2022-12-28T05:36:54.544Z,50.14
2022-12-28T05:39:43.133Z,50.14
2022-12-28T05:42:31.770Z,49.77
2022-12-28T05:45:23.326Z,49.80
2022-12-28T05:48:11.945Z,50.36
2022-12-28T05:51:03.634Z,50.40
2022-12-28T05:53:52.240Z,49.73
2022-12-28T05:56:40.819Z,50.11
2022-12-28T05:59:29.428Z,49.71
2022-12-28T06:02:23.048Z,49.91
2022-12-28T06:05:14.201Z,50.04
2022-12-28T06:08:04.163Z,49.81
2022-12-28T06:10:52.773Z,49.88
2022-12-28T06:13:41.580Z,49.91
2022-12-28T06:16:31.939Z,49.85
2022-12-28T06:19:20.533Z,50.06
2022-12-28T06:22:09.249Z,49.95
2022-12-28T06:30:36.263Z,50.29
2022-12-28T06:33:24.897Z,49.98
2022-12-28T06:36:19.601Z,50.10
2022-12-28T06:39:10.724Z,50.26
2022-12-28T06:42:00.682Z,50.00
2022-12-28T06:44:49.296Z,50.23
2022-12-28T06:47:37.903Z,50.25
2022-12-28T06:50:26.568Z,50.08
2022-12-28T06:53:15.152Z,50.06
2022-12-28T06:56:05.628Z,50.15
2022-12-28T06:59:02.321Z,50.18
2022-12-28T07:01:51.760Z,50.09
2022-12-28T07:04:40.393Z,50.27
2022-12-28T07:07:29.113Z,49.80
2022-12-28T07:10:17.868Z,49.53
2022-12-28T07:13:07.269Z,50.10
2022-12-28T07:15:57.254Z,50.37
2022-12-28T07:18:46.189Z,49.91
2022-12-28T07:21:37.258Z,49.77
2022-12-28T07:24:25.844Z,49.77
2022-12-28T07:30:03.011Z,49.53
2022-12-28T07:32:53.006Z,49.66
2022-12-28T07:35:41.721Z,50.08
2022-12-28T07:38:30.285Z,50.06
2022-12-28T07:41:20.663Z,49.93
2022-12-28T07:44:09.266Z,49.99
2022-12-28T07:46:57.912Z,49.50
2022-12-28T07:49:47.937Z,49.66
2022-12-28T07:52:38.034Z,49.93
2022-12-28T07:55:29.752Z,49.64
2022-12-28T07:58:18.372Z,49.87
2022-12-28T08:01:08.585Z,49.63
2022-12-28T08:03:58.801Z,49.87
2022-12-28T08:06:48.921Z,50.24
2022-12-28T08:09:37.519Z,50.12
2022-12-28T08:12:26.223Z,50.16
2022-12-28T08:15:14.994Z,49.61
2022-12-28T08:18:03.650Z,49.98
2022-12-28T08:20:52.456Z,50.00
2022-12-28T08:23:42.966Z,49.91
2022-12-28T08:26:33.273Z,50.09
2022-12-28T08:29:23.743Z,50.00
2022-12-28T08:32:12.452Z,50.12
2022-12-28T08:35:01.135Z,50.18
2022-12-28T08:37:49.754Z,50.13
2022-12-28T08:40:39.703Z,50.16
2022-12-28T08:43:28.710Z,50.13
2022-12-28T08:46:19.254Z,50.08
2022-12-28T08:49:08.045Z,50.09
2022-12-28T08:51:56.743Z,49.90
2022-12-28T08:54:45.360Z,49.63
2022-12-28T08:57:36.085Z,49.96
2022-12-28T09:00:24.796Z,49.89
2022-12-28T09:06:06.272Z,50.01
2022-12-28T09:09:05.295Z,49.58
2022-12-28T09:11:55.134Z,49.52
2022-12-28T09:14:45.054Z,49.57
2022-12-28T09:17:33.696Z,49.85
2022-12-28T09:20:22.322Z,50.08
2022-12-28T09:23:10.986Z,50.22
2022-12-28T09:26:05.755Z,49.84
2022-12-28T09:28:55.658Z,49.93
2022-12-28T09:31:45.793Z,49.97
2022-12-28T09:34:37.671Z,49.93
2022-12-28T09:37:26.907Z,42.64
2022-12-28T09:40:15.533Z,37.53
2022-12-28T09:43:04.306Z,37.01
2022-12-28T09:45:53.943Z,37.62
2022-12-28T09:48:56.051Z,40.20
2022-12-28T09:51:51.177Z,41.08
2022-12-28T09:54:41.253Z,40.55
2022-12-28T09:57:37.075Z,41.23
2022-12-28T10:00:28.642Z,41.11
2022-12-28T10:03:20.341Z,41.34
2022-12-28T10:06:14.248Z,41.20
2022-12-28T10:09:05.244Z,40.89
2022-12-28T10:11:54.083Z,41.21
2022-12-28T10:14:42.887Z,41.33
2022-12-28T10:17:31.575Z,41.11
2022-12-28T10:20:22.325Z,40.96
2022-12-28T10:23:15.159Z,41.30
2022-12-28T10:26:04.076Z,41.22
2022-12-28T10:28:54.836Z,41.46
2022-12-28T10:31:43.597Z,41.20
2022-12-28T10:34:34.342Z,41.26
2022-12-28T10:37:23.409Z,40.98
2022-12-28T10:40:24.481Z,41.74
2022-12-28T10:43:20.442Z,40.90
2022-12-28T10:46:16.893Z,41.82
2022-12-28T10:49:06.957Z,42.24
2022-12-28T10:52:04.061Z,42.69
2022-12-28T10:55:07.699Z,43.74
2022-12-28T10:58:33.314Z,44.60
2022-12-28T11:01:27.119Z,44.33
2022-12-28T11:04:19.221Z,44.43
2022-12-28T11:07:07.796Z,44.74
2022-12-28T11:09:56.466Z,44.90
2022-12-28T11:12:46.413Z,45.33
2022-12-28T11:15:36.483Z,45.21
2022-12-28T11:18:25.147Z,45.56
2022-12-28T11:21:19.223Z,45.82
2022-12-28T11:24:08.693Z,45.94
2022-12-28T11:26:57.351Z,45.86
2022-12-28T11:29:47.696Z,45.95
2022-12-28T11:32:44.011Z,46.29
2022-12-28T11:35:34.167Z,46.47
2022-12-28T11:38:39.759Z,46.46
2022-12-28T11:42:19.405Z,46.69
2022-12-28T11:45:00.273Z,46.79
2022-12-28T11:47:50.629Z,46.72
2022-12-28T11:50:51.219Z,47.38
2022-12-28T11:53:55.127Z,47.07
2022-12-28T11:57:01.895Z,46.93
2022-12-28T11:59:53.228Z,46.78
2022-12-28T12:02:42.385Z,46.89
2022-12-28T12:05:54.411Z,47.23
2022-12-28T12:08:43.740Z,47.14
2022-12-28T12:11:33.419Z,46.89
2022-12-28T12:14:26.781Z,47.04
2022-12-28T12:17:22.109Z,46.96
2022-12-28T12:20:29.027Z,46.98
2022-12-28T12:23:28.220Z,47.14
2022-12-28T12:26:28.052Z,46.90
2022-12-28T12:29:19.415Z,45.79
2022-12-28T12:32:14.215Z,45.42
2022-12-28T12:35:05.825Z,45.20
2022-12-28T12:37:56.728Z,46.04
2022-12-28T12:41:04.600Z,46.45
2022-12-28T12:44:05.452Z,46.63
2022-12-28T12:47:17.946Z,46.88
2022-12-28T12:50:20.403Z,47.08
2022-12-28T12:53:24.638Z,47.42
2022-12-28T12:56:25.922Z,47.20
2022-12-28T12:59:29.534Z,46.14
2022-12-28T13:02:42.391Z,45.65
2022-12-28T13:05:38.056Z,46.45
2022-12-28T13:08:37.562Z,46.32
2022-12-28T13:11:27.699Z,46.53
2022-12-28T13:14:20.830Z,44.76
2022-12-28T13:17:17.610Z,45.82
2022-12-28T13:20:11.646Z,45.99
2022-12-28T13:23:00.417Z,45.91
2022-12-28T13:25:51.063Z,46.10
2022-12-28T13:28:49.561Z,46.34
2022-12-28T13:31:40.464Z,46.41
2022-12-28T13:34:30.199Z,46.76
2022-12-28T13:37:19.010Z,46.71
2022-12-28T13:40:11.345Z,47.00
2022-12-28T13:43:12.109Z,47.11
2022-12-28T13:46:07.822Z,46.90
2022-12-28T13:48:59.559Z,46.97
2022-12-28T13:51:53.068Z,47.20
2022-12-28T13:54:46.225Z,47.42
2022-12-28T13:57:58.868Z,47.59
2022-12-28T14:00:45.929Z,47.12
2022-12-28T14:03:42.316Z,46.98
2022-12-28T14:06:32.055Z,47.20
2022-12-28T14:09:22.144Z,46.70
2022-12-28T14:12:11.114Z,46.85
2022-12-28T14:15:00.282Z,46.94
2022-12-28T14:17:51.258Z,45.61
2022-12-28T14:20:49.575Z,45.97
2022-12-28T14:23:39.631Z,46.13
2022-12-28T14:26:30.391Z,46.23
2022-12-28T14:29:22.603Z,46.19
2022-12-28T14:32:15.764Z,46.05
2022-12-28T14:35:20.593Z,45.79
2022-12-28T14:38:18.886Z,45.78
2022-12-28T14:41:07.987Z,45.69
2022-12-28T14:43:57.776Z,46.28
2022-12-28T14:46:46.681Z,45.92
2022-12-28T14:49:37.523Z,46.37
2022-12-28T14:52:37.537Z,45.94
2022-12-28T14:55:33.810Z,46.43
2022-12-28T14:58:24.251Z,46.29
2022-12-28T15:01:12.996Z,46.53
2022-12-28T15:04:04.485Z,46.45
2022-12-28T15:06:53.081Z,46.43
2022-12-28T15:09:41.718Z,46.71
2022-12-28T15:12:31.889Z,47.12
2022-12-28T15:15:20.568Z,47.20
2022-12-28T15:18:09.235Z,47.89
2022-12-28T15:20:58.527Z,47.48
2022-12-28T15:23:50.263Z,47.68
2022-12-28T15:26:39.420Z,47.30
2022-12-28T15:30:03.708Z,47.49
2022-12-28T15:32:38.230Z,47.68
2022-12-28T15:35:27.098Z,48.00
2022-12-28T15:38:15.709Z,47.59
2022-12-28T15:41:04.371Z,47.54
2022-12-28T15:43:53.016Z,47.54
2022-12-28T15:46:43.017Z,47.26
2022-12-28T15:49:31.678Z,46.50
2022-12-28T15:52:20.338Z,47.28
2022-12-28T15:55:09.559Z,47.01
2022-12-28T15:57:58.205Z,47.43
2022-12-28T16:00:47.864Z,47.63
2022-12-28T16:03:38.028Z,47.57
2022-12-28T16:06:27.440Z,47.71
2022-12-28T16:09:16.413Z,47.61
2022-12-28T16:12:05.321Z,47.31
2022-12-28T16:14:53.974Z,47.23
2022-12-28T16:17:52.954Z,47.19
2022-12-28T16:20:48.992Z,47.83
2022-12-28T16:23:39.983Z,47.57
2022-12-28T16:26:29.094Z,47.46
2022-12-28T16:29:17.983Z,47.14
2022-12-28T16:32:07.109Z,47.39
2022-12-28T16:34:56.088Z,47.20
2022-12-28T16:37:46.060Z,47.34
2022-12-28T16:40:36.261Z,47.61
2022-12-28T16:43:25.250Z,47.36
2022-12-28T16:46:13.940Z,47.46
2022-12-28T16:49:03.560Z,47.92
2022-12-28T16:51:52.171Z,47.26
2022-12-28T16:54:42.150Z,47.45
2022-12-28T16:57:30.820Z,47.63
2022-12-28T17:00:19.686Z,47.79
2022-12-28T17:03:08.411Z,47.73
2022-12-28T17:05:56.997Z,47.92
2022-12-28T17:08:45.648Z,47.43
2022-12-28T17:11:35.759Z,47.63
2022-12-28T17:14:36.883Z,47.80
2022-12-28T17:17:26.264Z,48.15
2022-12-28T17:20:15.295Z,48.28
2022-12-28T17:23:03.954Z,48.13
2022-12-28T17:25:54.877Z,47.91
2022-12-28T17:28:44.981Z,48.07
2022-12-28T17:31:33.947Z,47.82
2022-12-28T17:34:22.629Z,48.11
2022-12-28T17:37:11.283Z,48.03
2022-12-28T17:39:59.915Z,47.95
2022-12-28T17:42:48.671Z,48.07
2022-12-28T17:45:38.939Z,47.78
2022-12-28T17:48:29.688Z,48.23
2022-12-28T17:51:18.399Z,47.90
2022-12-28T17:54:07.118Z,48.14
2022-12-28T17:56:57.461Z,48.05
2022-12-28T17:59:46.709Z,47.92
2022-12-28T18:02:36.805Z,48.29
2022-12-28T18:05:25.506Z,48.16
2022-12-28T18:08:14.444Z,47.73
2022-12-28T18:11:03.379Z,47.91
2022-12-28T18:13:52.018Z,47.68
2022-12-28T18:16:40.735Z,47.87
2022-12-28T18:19:30.768Z,48.11
2022-12-28T18:22:19.367Z,48.00
2022-12-28T18:25:08.526Z,47.93
2022-12-28T18:27:57.120Z,48.00
2022-12-28T18:30:45.882Z,48.03
2022-12-28T18:33:35.729Z,48.19
2022-12-28T18:36:25.825Z,47.96
2022-12-28T18:39:14.524Z,47.65
2022-12-28T18:42:03.517Z,47.94
2022-12-28T18:44:52.398Z,47.82
2022-12-28T18:47:41.021Z,48.22
2022-12-28T18:50:29.789Z,47.81
2022-12-28T18:53:19.798Z,48.27
2022-12-28T18:56:10.027Z,48.04
2022-12-28T18:58:58.967Z,48.10
2022-12-28T19:04:56.949Z,47.77
2022-12-28T19:07:49.257Z,47.83
2022-12-28T19:10:39.673Z,47.85
2022-12-28T19:13:28.527Z,47.97
2022-12-28T19:16:24.481Z,47.75
2022-12-28T19:19:17.859Z,48.09
2022-12-28T19:22:06.530Z,47.92
2022-12-28T19:24:55.106Z,48.01
2022-12-28T19:27:45.095Z,47.64
2022-12-28T19:30:33.843Z,48.21
2022-12-28T19:33:22.456Z,47.78
2022-12-28T19:36:12.280Z,47.58
2022-12-28T19:39:00.891Z,47.12
2022-12-28T19:41:49.562Z,47.22
2022-12-28T19:44:39.627Z,47.37
2022-12-28T19:47:28.198Z,47.37
2022-12-28T19:50:17.301Z,47.56
2022-12-28T19:53:05.978Z,47.42
2022-12-28T19:55:59.428Z,46.97
2022-12-28T19:58:48.438Z,47.38
2022-12-28T20:01:39.503Z,46.95
2022-12-28T20:04:28.484Z,47.42
2022-12-28T20:07:17.105Z,46.87
2022-12-28T20:10:06.573Z,47.03
2022-12-28T20:12:55.194Z,47.12
2022-12-28T20:15:43.781Z,46.87
2022-12-28T20:18:33.771Z,47.29
2022-12-28T20:21:23.275Z,46.94
2022-12-28T20:24:13.526Z,47.04
2022-12-28T20:27:02.160Z,47.24
2022-12-28T20:29:50.744Z,47.20
2022-12-28T20:32:44.561Z,47.18
2022-12-28T20:35:35.138Z,47.18
2022-12-28T20:38:23.761Z,47.38
2022-12-28T20:41:35.456Z,47.11
2022-12-28T20:44:25.614Z,47.33
2022-12-28T20:47:14.577Z,47.29
2022-12-28T20:50:03.975Z,47.47
2022-12-28T20:52:55.737Z,47.55
2022-12-28T20:55:44.340Z,47.30
2022-12-28T20:58:33.013Z,47.45
2022-12-28T21:01:22.560Z,47.09
2022-12-28T21:04:11.986Z,46.99
2022-12-28T21:07:00.547Z,47.09
2022-12-28T21:09:51.074Z,47.19
2022-12-28T21:12:39.690Z,47.36
2022-12-28T21:15:28.266Z,47.17
2022-12-28T21:18:16.945Z,47.48
2022-12-28T21:21:06.081Z,47.17
2022-12-28T21:23:54.692Z,47.45
2022-12-28T21:26:44.643Z,47.69
2022-12-28T21:29:33.246Z,47.38
2022-12-28T21:32:21.896Z,47.15
2022-12-28T21:35:11.210Z,47.06
2022-12-28T21:37:59.851Z,47.49
2022-12-28T21:40:58.284Z,47.08
2022-12-28T21:43:48.321Z,47.46
2022-12-28T21:46:37.046Z,47.40
2022-12-28T21:49:25.773Z,47.39
2022-12-28T21:52:14.374Z,47.21
2022-12-28T21:55:23.304Z,47.50
2022-12-28T21:58:11.915Z,47.18
2022-12-28T22:01:19.743Z,47.05
2022-12-28T22:04:25.951Z,47.40
2022-12-28T22:07:16.759Z,47.26
2022-12-28T22:10:23.578Z,47.02
2022-12-28T22:13:13.191Z,46.90
2022-12-28T22:16:03.305Z,46.92
2022-12-28T22:19:02.090Z,47.25
2022-12-28T22:21:51.904Z,46.84
2022-12-28T22:24:40.510Z,47.40
2022-12-28T22:27:29.096Z,47.33
2022-12-28T22:30:17.713Z,47.38
2022-12-28T22:33:07.741Z,47.53
2022-12-28T22:35:56.251Z,47.78
2022-12-28T22:38:45.029Z,47.98
2022-12-28T22:41:33.649Z,47.50
2022-12-28T22:44:22.306Z,47.93
2022-12-28T22:47:10.951Z,47.40
2022-12-28T22:50:00.872Z,47.55
2022-12-28T22:52:49.431Z,48.02
2022-12-28T22:55:38.026Z,47.99
2022-12-28T22:58:27.529Z,48.10
2022-12-28T23:01:18.425Z,47.92
2022-12-28T23:04:07.754Z,47.67
2022-12-28T23:07:03.303Z,47.63
2022-12-28T23:09:52.702Z,47.78
2022-12-28T23:12:41.341Z,47.45
2022-12-28T23:15:29.964Z,47.85
2022-12-28T23:18:36.122Z,47.54
2022-12-28T23:21:43.293Z,47.47
2022-12-28T23:24:50.906Z,47.81
2022-12-28T23:27:41.786Z,47.82
2022-12-28T23:30:30.573Z,47.86
2022-12-28T23:33:20.064Z,48.10
2022-12-28T23:36:09.535Z,48.00
2022-12-28T23:38:58.085Z,47.92
2022-12-28T23:41:50.861Z,47.91
2022-12-28T23:44:39.471Z,47.83
2022-12-28T23:47:28.230Z,47.74
2022-12-28T23:50:17.783Z,47.51
2022-12-28T23:53:06.380Z,48.07
2022-12-28T23:55:54.983Z,47.91
2022-12-28T23:58:44.972Z,47.87
